Time;durP1;ratioP1;P1;durP2;ratioP2;P2;SDS_P1;SDS_P2;PMS_P1;PMS_P2;Temp;Humidity;BMP_temperature;BMP_pressure;BME280_temperature;BME280_humidity;BME280_pressure;Samples;Min_cycle;Max_cycle;Signal;HPM_P1;HPM_P2
2021/09/17 00:01:19;;;;;;;24.40;11.98;;;;;;;11.85;99.62;96306.84;5049670;28;20064;-80
2021/09/17 00:03:44;;;;;;;24.05;11.27;;;;;;;11.87;98.92;96305.53;5039341;28;20049;-80
2021/09/17 00:06:10;;;;;;;20.13;9.85;;;;;;;11.75;98.44;96297.69;5018826;28;20045;-85
2021/09/17 00:08:35;;;;;;;20.15;9.70;;;;;;;11.77;97.95;96298.25;5039522;28;20045;-85
2021/09/17 00:11:06;;;;;;;18.63;9.63;;;;;;;11.80;97.66;96305.69;5040032;28;20058;-83
2021/09/17 00:13:36;;;;;;;23.55;10.30;;;;;;;11.80;97.55;96307.53;5040158;28;20045;-80
2021/09/17 00:16:02;;;;;;;19.27;9.57;;;;;;;11.76;97.21;96301.94;5044283;28;20042;-79
2021/09/17 00:18:27;;;;;;;19.20;9.77;;;;;;;11.70;97.97;96302.09;5045648;28;20480;-79
2021/09/17 00:20:56;;;;;;;19.73;8.95;;;;;;;11.72;97.68;96298.16;5033502;28;20037;-78
2021/09/17 00:23:21;;;;;;;18.33;9.75;;;;;;;11.66;97.58;96304.41;5038506;28;20041;-80
2021/09/17 00:25:47;;;;;;;22.63;10.15;;;;;;;11.71;97.09;96301.06;5020551;28;20048;-78
2021/09/17 00:28:13;;;;;;;19.17;9.77;;;;;;;11.68;96.81;96304.97;5020058;28;20053;-80
2021/09/17 00:30:40;;;;;;;20.13;10.15;;;;;;;11.64;96.90;96292.53;5042400;28;20104;-80
2021/09/17 00:33:05;;;;;;;19.63;9.85;;;;;;;11.67;96.13;96295.47;5037662;28;20041;-80
2021/09/17 00:35:31;;;;;;;18.98;9.68;;;;;;;11.61;96.58;96290.34;5036543;28;20072;-80
2021/09/17 00:37:57;;;;;;;19.13;9.32;;;;;;;11.66;96.48;96299.13;5037791;28;20044;-80
2021/09/17 00:40:22;;;;;;;18.63;9.88;;;;;;;11.60;96.66;96294.81;5036193;28;20565;-80
2021/09/17 00:42:48;;;;;;;19.27;8.98;;;;;;;11.52;97.00;96292.59;5019291;28;20083;-80
2021/09/17 00:45:15;;;;;;;20.23;9.73;;;;;;;11.42;97.54;96295.06;5035979;28;20061;-79
2021/09/17 00:47:42;;;;;;;18.90;9.02;;;;;;;11.41;97.68;96291.63;5020956;28;20050;-80
2021/09/17 00:50:13;;;;;;;18.77;9.02;;;;;;;11.43;97.32;96294.03;5040295;28;20409;-81
2021/09/17 00:52:38;;;;;;;16.90;8.98;;;;;;;11.39;97.12;96293.69;5052254;28;20030;-81
2021/09/17 00:55:06;;;;;;;19.38;9.55;;;;;;;11.32;97.74;96293.06;5024248;28;20053;-80
2021/09/17 00:57:32;;;;;;;20.35;9.57;;;;;;;11.42;97.22;96292.44;5042905;28;20073;-81
2021/09/17 00:59:57;;;;;;;18.40;8.98;;;;;;;11.42;97.59;96287.16;5028843;28;20045;-80
2021/09/17 01:02:23;;;;;;;18.67;9.35;;;;;;;11.42;97.43;96289.81;5045822;28;20042;-82
2021/09/17 01:04:50;;;;;;;18.90;8.88;;;;;;;11.50;97.03;96282.28;5056462;28;20049;-80
2021/09/17 01:07:18;;;;;;;15.83;8.43;;;;;;;11.60;96.71;96283.50;5049277;28;20501;-80
2021/09/17 01:09:44;;;;;;;16.42;8.07;;;;;;;11.73;96.11;96281.34;5039452;28;20041;-83
2021/09/17 01:12:11;;;;;;;16.80;8.38;;;;;;;11.78;95.53;96275.31;5039341;28;20120;-82
2021/09/17 01:14:39;;;;;;;16.00;7.72;;;;;;;11.90;94.58;96276.09;5041443;28;20042;-82
2021/09/17 01:17:05;;;;;;;17.20;7.93;;;;;;;12.00;93.51;96276.22;5042209;28;20061;-82
2021/09/17 01:19:30;;;;;;;15.48;8.30;;;;;;;12.05;92.85;96270.19;5034388;28;20028;-80
2021/09/17 01:21:59;;;;;;;13.45;7.32;;;;;;;12.06;92.59;96271.81;5049611;28;20041;-81
2021/09/17 01:24:26;;;;;;;15.05;7.68;;;;;;;11.97;92.96;96266.16;5025019;28;20045;-82
2021/09/17 01:26:53;;;;;;;14.05;6.93;;;;;;;11.93;93.44;96266.88;5022716;28;20045;-82
2021/09/17 01:29:19;;;;;;;14.93;7.32;;;;;;;12.01;94.05;96266.47;5022475;28;20101;-82
2021/09/17 01:31:45;;;;;;;15.48;7.20;;;;;;;11.99;93.53;96265.91;5022894;28;20065;-82
2021/09/17 01:34:14;;;;;;;14.27;7.13;;;;;;;12.08;93.82;96264.47;5022758;28;20564;-82
2021/09/17 01:36:40;;;;;;;14.65;7.43;;;;;;;12.16;93.26;96261.41;5021174;28;20095;-81
2021/09/17 01:39:08;;;;;;;13.95;6.70;;;;;;;12.26;92.86;96256.25;5024592;28;20112;-81
2021/09/17 01:41:34;;;;;;;;;;;;;;;12.25;92.96;96259.13;5024115;28;20045;-81
2021/09/17 01:44:00;;;;;;;14.50;6.93;;;;;;;12.27;92.56;96257.06;5029855;28;19919;-80
2021/09/17 01:46:26;;;;;;;13.57;6.72;;;;;;;12.23;92.16;96253.31;5040742;28;20065;-81
2021/09/17 01:48:52;;;;;;;12.60;6.53;;;;;;;12.23;91.47;96256.75;5036887;28;20036;-81
2021/09/17 01:51:18;;;;;;;14.88;6.57;;;;;;;12.19;91.25;96249.56;5033597;28;20046;-80
2021/09/17 01:53:44;;;;;;;14.32;6.65;;;;;;;12.21;91.86;96242.19;5025171;28;20072;-81
2021/09/17 01:56:12;;;;;;;14.63;6.80;;;;;;;12.19;91.96;96242.44;5030254;28;20052;-80
2021/09/17 01:58:38;;;;;;;12.88;6.30;;;;;;;12.28;90.88;96243.63;5028491;28;20183;-81
2021/09/17 02:01:04;;;;;;;13.55;6.65;;;;;;;12.23;91.12;96235.66;5024818;28;20045;-80
2021/09/17 02:03:30;;;;;;;12.48;6.22;;;;;;;12.13;91.54;96238.16;5024899;28;20050;-83
2021/09/17 02:05:56;;;;;;;13.65;6.95;;;;;;;12.09;91.23;96227.28;5024961;28;20417;-83
2021/09/17 02:08:22;;;;;;;14.02;6.85;;;;;;;12.00;92.31;96233.22;5045870;28;20107;-82
2021/09/17 02:10:49;;;;;;;14.15;7.13;;;;;;;11.90;92.00;96225.22;5052306;28;20037;-82
2021/09/17 02:13:22;;;;;;;15.90;7.63;;;;;;;11.74;93.32;96230.22;5036335;28;20114;-81
2021/09/17 02:15:49;;;;;;;14.93;6.43;;;;;;;11.65;93.07;96234.31;5050952;28;20049;-83
2021/09/17 02:18:15;;;;;;;13.73;6.45;;;;;;;11.59;93.77;96232.63;5026473;28;20045;-83
2021/09/17 02:20:41;;;;;;;14.32;7.20;;;;;;;11.49;94.55;96235.13;5046868;28;20043;-83
2021/09/17 02:23:06;;;;;;;17.58;6.95;;;;;;;11.41;94.94;96231.06;5049972;28;20045;-83
2021/09/17 02:25:32;;;;;;;13.70;7.35;;;;;;;11.47;94.50;96239.84;5025824;28;20141;-82
2021/09/17 02:27:58;;;;;;;15.45;7.40;;;;;;;11.45;94.94;96223.47;5039022;28;20046;-82
2021/09/17 02:30:25;;;;;;;15.55;7.70;;;;;;;11.48;95.51;96238.78;5021332;28;20046;-80
2021/09/17 02:32:53;;;;;;;15.73;7.47;;;;;;;11.48;95.69;96238.78;5025198;28;20054;-80
2021/09/17 02:35:21;;;;;;;14.85;7.50;;;;;;;11.50;96.50;96231.44;5049806;28;20093;-80
2021/09/17 02:37:46;;;;;;;16.40;8.25;;;;;;;11.50;96.91;96234.06;5040638;28;20462;-80
2021/09/17 02:40:16;;;;;;;19.55;7.70;;;;;;;11.50;96.49;96229.59;5038219;28;20060;-79
2021/09/17 02:42:44;;;;;;;15.88;7.35;;;;;;;11.69;96.28;96230.16;5038358;28;20105;-80
2021/09/17 02:45:12;;;;;;;16.55;7.70;;;;;;;11.69;95.92;96230.16;5022792;28;20045;-83
2021/09/17 02:47:39;;;;;;;17.17;7.83;;;;;;;11.66;95.42;96229.84;5041467;28;20497;-80
2021/09/17 02:50:09;;;;;;;15.23;6.95;;;;;;;11.83;94.51;96220.88;5046825;28;20275;-80
2021/09/17 02:52:35;;;;;;;13.68;6.07;;;;;;;11.79;94.76;96219.75;5048598;28;20052;-80
2021/09/17 02:55:01;;;;;;;16.30;7.15;;;;;;;11.79;94.74;96227.66;5046656;28;20041;-79
2021/09/17 02:57:26;;;;;;;15.30;7.07;;;;;;;11.85;94.28;96227.78;5047360;28;20045;-80
2021/09/17 02:59:52;;;;;;;13.45;6.43;;;;;;;11.90;93.94;96230.47;5048443;28;20125;-82
2021/09/17 03:02:18;;;;;;;15.23;6.90;;;;;;;11.87;94.20;96220.41;5047431;28;20083;-83
2021/09/17 03:04:47;;;;;;;15.88;7.47;;;;;;;11.92;94.04;96228.38;5041462;28;20444;-83
2021/09/17 03:07:12;;;;;;;13.57;6.80;;;;;;;12.02;93.43;96220.63;5044923;28;20096;-84
2021/09/17 03:09:38;;;;;;;15.07;7.50;;;;;;;12.13;92.82;96218.91;5039513;28;20043;-83
2021/09/17 03:12:05;;;;;;;16.35;7.80;;;;;;;11.94;94.13;96221.03;5024939;28;20056;-80
2021/09/17 03:14:33;;;;;;;16.73;8.32;;;;;;;12.00;93.72;96225.31;5038015;28;20049;-80
2021/09/17 03:16:58;;;;;;;;;;;;;;;11.93;94.19;96237.88;5020231;28;20529;-83
2021/09/17 03:19:24;;;;;;;16.33;8.38;;;;;;;11.97;94.47;96239.00;5022592;28;20007;-83
2021/09/17 03:21:51;;;;;;;17.67;8.65;;;;;;;11.96;93.92;96234.78;5027238;28;20052;-83
2021/09/17 03:24:17;;;;;;;16.50;8.00;;;;;;;12.03;93.61;96219.56;5021711;28;20048;-83
2021/09/17 03:26:43;;;;;;;16.45;8.07;;;;;;;12.05;93.25;96228.84;5021435;28;20048;-81
2021/09/17 03:29:10;;;;;;;16.30;7.80;;;;;;;11.99;93.27;96234.28;5019950;28;20050;-80
2021/09/17 03:31:36;;;;;;;18.40;8.82;;;;;;;11.94;94.26;96231.56;5021065;28;20045;-80
2021/09/17 03:34:04;;;;;;;16.02;8.25;;;;;;;11.96;94.44;96225.03;5029365;28;20044;-79
2021/09/17 03:36:29;;;;;;;16.88;8.50;;;;;;;11.98;94.53;96227.41;5044265;28;20030;-81
2021/09/17 03:38:57;;;;;;;17.27;8.93;;;;;;;12.02;94.68;96236.44;5038683;28;20113;-80
2021/09/17 03:41:25;;;;;;;18.42;9.15;;;;;;;11.95;95.14;96222.63;5042542;28;20506;-81
2021/09/17 03:43:52;;;;;;;18.65;8.77;;;;;;;11.91;95.30;96238.13;5036383;28;20097;-79
2021/09/17 03:46:18;;;;;;;17.65;8.60;;;;;;;11.95;95.25;96226.06;5016986;28;20045;-79
2021/09/17 03:48:46;;;;;;;18.85;8.45;;;;;;;12.10;94.89;96225.44;5035556;28;20575;-79
2021/09/17 03:51:11;;;;;;;19.38;9.32;;;;;;;12.03;95.08;96224.84;5034428;28;20434;-79
2021/09/17 03:53:37;;;;;;;20.38;9.25;;;;;;;12.19;94.76;96229.25;5016968;28;20084;-78
2021/09/17 03:56:05;;;;;;;18.08;8.50;;;;;;;12.20;94.21;96233.50;5016902;28;20080;-79
2021/09/17 03:58:30;;;;;;;20.17;8.57;;;;;;;12.24;94.12;96225.91;5035938;28;20076;-79
2021/09/17 04:00:56;;;;;;;18.75;9.13;;;;;;;12.12;94.04;96218.09;5077364;22;20060;-79
2021/09/17 04:03:21;;;;;;;20.73;9.35;;;;;;;12.02;94.50;96220.63;5083116;28;20104;-79
2021/09/17 04:05:47;;;;;;;18.98;9.52;;;;;;;12.04;94.95;96216.69;5080433;28;20044;-78
2021/09/17 04:08:14;;;;;;;18.02;8.85;;;;;;;12.04;95.38;96221.16;5068012;28;20050;-78
2021/09/17 04:10:40;;;;;;;18.60;9.02;;;;;;;12.07;95.50;96225.94;5079861;28;20040;-78
2021/09/17 04:13:10;;;;;;;18.45;8.65;;;;;;;12.09;95.24;96223.84;5070466;28;20085;-79
2021/09/17 04:15:36;;;;;;;19.35;9.23;;;;;;;12.01;95.61;96216.38;5077714;28;20040;-78
2021/09/17 04:18:01;;;;;;;20.45;9.00;;;;;;;12.06;95.21;96211.97;5081483;28;20051;-79
2021/09/17 04:20:27;;;;;;;21.15;9.50;;;;;;;12.07;95.14;96218.03;5093305;28;20496;-78
2021/09/17 04:22:52;;;;;;;21.27;9.02;;;;;;;12.12;95.18;96217.31;5099696;28;20508;-77
2021/09/17 04:25:21;;;;;;;19.13;9.45;;;;;;;11.93;96.20;96219.44;5063173;28;20476;-78
2021/09/17 04:27:47;;;;;;;19.63;10.45;;;;;;;11.92;96.39;96228.38;5092494;28;20029;-79
2021/09/17 04:30:19;;;;;;;20.58;9.80;;;;;;;11.96;96.24;96234.78;5077718;28;20077;-79
2021/09/17 04:32:47;;;;;;;19.30;9.77;;;;;;;11.97;96.39;96236.38;5098695;28;20408;-80
2021/09/17 04:35:14;;;;;;;21.42;11.20;;;;;;;11.87;97.30;96230.94;5094313;28;20036;-79
2021/09/17 04:37:40;;;;;;;19.77;10.50;;;;;;;11.92;97.07;96236.28;5080995;28;20090;-79
2021/09/17 04:40:08;;;;;;;24.85;11.30;;;;;;;11.95;97.11;96233.19;5076790;28;20146;-79
2021/09/17 04:42:33;;;;;;;22.67;11.05;;;;;;;12.01;96.81;96232.22;5089329;28;20056;-78
2021/09/17 04:44:59;;;;;;;21.27;11.05;;;;;;;12.08;96.58;96230.19;5075399;28;20040;-78
2021/09/17 04:47:28;;;;;;;20.65;10.18;;;;;;;11.95;97.60;96235.81;5082407;28;20520;-77
2021/09/17 04:49:54;;;;;;;19.42;10.20;;;;;;;12.01;97.01;96224.28;5075700;28;20040;-77
2021/09/17 04:52:21;;;;;;;25.45;11.52;;;;;;;12.01;97.66;96234.84;5096052;28;20047;-77
2021/09/17 04:54:47;;;;;;;23.75;10.63;;;;;;;11.99;97.64;96229.00;5066072;28;20411;-77
2021/09/17 04:57:12;;;;;;;19.70;10.15;;;;;;;12.13;97.26;96227.59;5074299;28;20132;-77
2021/09/17 04:59:40;;;;;;;22.40;10.63;;;;;;;12.15;97.27;96225.50;5090760;28;20040;-78
2021/09/17 05:02:08;;;;;;;22.75;10.90;;;;;;;12.20;96.85;96230.84;5077626;28;20048;-78
2021/09/17 05:04:35;;;;;;;20.88;10.63;;;;;;;12.15;97.30;96233.44;5094016;28;20048;-79
2021/09/17 05:07:01;;;;;;;22.27;11.30;;;;;;;12.12;97.62;96233.13;5096384;28;20044;-78
2021/09/17 05:09:26;;;;;;;20.73;10.00;;;;;;;12.21;97.02;96237.72;5078328;28;20047;-77
2021/09/17 05:11:52;;;;;;;19.88;10.32;;;;;;;12.11;97.67;96234.97;5086901;28;20046;-78
2021/09/17 05:14:18;;;;;;;23.63;10.75;;;;;;;12.12;97.17;96244.47;5081293;28;20032;-78
2021/09/17 05:16:46;;;;;;;18.58;10.07;;;;;;;12.15;96.91;96241.34;5077931;28;20052;-78
2021/09/17 05:19:12;;;;;;;20.63;10.45;;;;;;;12.15;96.80;96238.69;5090333;28;20040;-78
2021/09/17 05:21:40;;;;;;;22.33;9.82;;;;;;;12.28;96.40;96248.09;5077841;28;20040;-82
2021/09/17 05:24:08;;;;;;;22.58;10.40;;;;;;;12.30;96.35;96252.06;5085285;28;20508;-80
2021/09/17 05:26:34;;;;;;;19.95;10.07;;;;;;;12.27;96.19;96247.31;5070130;28;20054;-81
2021/09/17 05:29:02;;;;;;;18.60;9.27;;;;;;;12.18;96.82;96242.69;5091800;28;20048;-83
2021/09/17 05:31:29;;;;;;;20.20;10.05;;;;;;;12.24;97.00;96247.78;5091435;28;20346;-80
2021/09/17 05:33:55;;;;;;;22.42;9.65;;;;;;;12.29;96.96;96245.22;5080446;28;20044;-79
2021/09/17 05:36:21;;;;;;;17.50;9.57;;;;;;;12.35;96.73;96244.22;5076914;28;20044;-79
2021/09/17 05:38:50;;;;;;;18.70;10.50;;;;;;;12.42;96.52;96253.78;5079725;28;20045;-79
2021/09/17 05:41:15;;;;;;;23.02;10.45;;;;;;;12.44;96.40;96241.19;5073980;28;20036;-79
2021/09/17 05:43:41;;;;;;;19.00;9.95;;;;;;;12.44;96.33;96246.44;5069657;28;20046;-79
2021/09/17 05:46:07;;;;;;;18.17;8.80;;;;;;;12.56;95.75;96247.13;5078825;28;20037;-78
2021/09/17 05:48:34;;;;;;;18.83;9.27;;;;;;;12.67;95.46;96246.19;5083158;28;20045;-80
2021/09/17 05:51:00;;;;;;;17.27;9.35;;;;;;;12.71;94.84;96252.56;5084196;28;20209;-81
2021/09/17 05:53:25;;;;;;;17.25;9.18;;;;;;;12.64;95.15;96246.66;5086994;28;20451;-81
2021/09/17 05:55:52;;;;;;;19.48;9.10;;;;;;;12.83;94.58;96242.66;5084024;28;20043;-78
2021/09/17 05:58:18;;;;;;;19.73;8.95;;;;;;;12.87;93.57;96241.13;5093496;28;20043;-81
2021/09/17 06:00:44;;;;;;;16.27;9.00;;;;;;;12.86;92.32;96250.09;5099158;28;20070;-79
2021/09/17 06:03:10;;;;;;;15.80;7.95;;;;;;;12.91;92.27;96248.53;5087186;28;20047;-82
2021/09/17 06:05:38;;;;;;;16.20;7.97;;;;;;;12.90;91.78;96244.28;5072383;28;20407;-79
2021/09/17 06:08:07;;;;;;;16.33;8.10;;;;;;;12.93;91.85;96243.81;5089399;28;20052;-83
2021/09/17 06:10:35;;;;;;;17.88;8.50;;;;;;;13.03;91.25;96243.91;5079171;28;20052;-79
2021/09/17 06:13:04;;;;;;;15.30;7.88;;;;;;;13.05;90.88;96247.09;5089707;28;20066;-79
2021/09/17 06:15:30;;;;;;;16.85;7.93;;;;;;;13.13;90.48;96244.00;5077035;28;20044;-81
2021/09/17 06:17:56;;;;;;;15.27;7.45;;;;;;;13.17;89.44;96244.28;5088641;28;20061;-80
2021/09/17 06:20:21;;;;;;;13.52;7.10;;;;;;;13.19;89.28;96239.56;5106228;28;20119;-80
2021/09/17 06:22:53;;;;;;;13.40;7.03;;;;;;;13.20;89.45;96234.03;5080983;28;20044;-79
2021/09/17 06:25:20;;;;;;;15.15;7.18;;;;;;;13.26;89.03;96246.25;5093126;28;20044;-79
2021/09/17 06:27:48;;;;;;;12.82;6.53;;;;;;;13.36;87.90;96248.97;5107353;28;20028;-80
2021/09/17 06:30:16;;;;;;;12.13;6.40;;;;;;;13.48;87.85;96248.00;5071108;28;20048;-79
2021/09/17 06:32:42;;;;;;;14.43;7.00;;;;;;;13.47;87.77;96243.78;5071967;28;20048;-79
2021/09/17 06:35:09;;;;;;;14.32;6.57;;;;;;;13.63;87.13;96242.84;5087893;28;20084;-80
2021/09/17 06:37:35;;;;;;;14.75;7.00;;;;;;;13.65;86.90;96244.16;5101338;28;20036;-80
2021/09/17 06:40:00;;;;;;;14.40;6.13;;;;;;;13.82;86.33;96240.56;5069622;28;20128;-80
2021/09/17 06:42:26;;;;;;;14.60;6.20;;;;;;;13.85;86.34;96240.06;5086017;28;20116;-81
2021/09/17 06:44:54;;;;;;;14.40;7.00;;;;;;;13.87;85.61;96243.25;5093635;28;20051;-80
2021/09/17 06:47:21;;;;;;;15.30;6.53;;;;;;;13.99;84.89;96250.97;5085883;28;20037;-80
2021/09/17 06:49:47;;;;;;;13.35;6.32;;;;;;;14.04;84.22;96245.72;5112208;28;20089;-79
2021/09/17 06:52:13;;;;;;;13.88;6.55;;;;;;;14.27;83.92;96255.91;5093739;28;20048;-81
2021/09/17 06:54:40;;;;;;;12.82;6.68;;;;;;;14.15;83.21;96252.66;5085317;28;20068;-80
2021/09/17 06:57:06;;;;;;;13.20;6.53;;;;;;;14.05;83.19;96250.78;5105206;28;20036;-80
2021/09/17 06:59:32;;;;;;;12.75;5.82;;;;;;;14.11;83.19;96248.94;5085630;28;20150;-81
2021/09/17 07:01:57;;;;;;;12.18;6.28;;;;;;;14.26;82.86;96253.50;5098259;28;20041;-80
2021/09/17 07:04:24;;;;;;;12.25;6.35;;;;;;;14.32;83.39;96255.94;5083645;28;20045;-79
2021/09/17 07:06:50;;;;;;;13.13;6.10;;;;;;;14.39;82.00;96253.03;5088057;28;20047;-80
2021/09/17 07:09:16;;;;;;;13.00;6.20;;;;;;;14.41;82.01;96254.38;5083593;28;20041;-80
2021/09/17 07:11:44;;;;;;;12.82;5.50;;;;;;;14.55;82.62;96253.94;5093488;28;20120;-79
2021/09/17 07:14:12;;;;;;;12.45;6.28;;;;;;;14.72;81.08;96259.81;5089151;28;20108;-80
2021/09/17 07:16:39;;;;;;;14.75;6.63;;;;;;;14.86;80.83;96260.91;5090803;28;20071;-79
2021/09/17 07:19:05;;;;;;;11.40;6.10;;;;;;;14.80;80.88;96259.31;5064375;28;20121;-80
2021/09/17 07:21:34;;;;;;;12.88;5.75;;;;;;;15.01;81.10;96256.69;5074363;28;20041;-81
2021/09/17 07:23:59;;;;;;;12.30;6.43;;;;;;;15.05;79.44;96261.22;5089634;28;20044;-80
2021/09/17 07:26:25;;;;;;;13.23;7.03;;;;;;;15.11;80.25;96262.81;5084098;28;20119;-81
2021/09/17 07:28:51;;;;;;;11.05;5.78;;;;;;;15.19;78.92;96262.31;5077514;28;20090;-80
2021/09/17 07:31:17;;;;;;;12.88;5.97;;;;;;;15.27;78.70;96260.19;5100382;28;20067;-80
2021/09/17 07:33:42;;;;;;;12.45;6.20;;;;;;;15.35;78.65;96265.75;5088129;28;20033;-80
2021/09/17 07:36:08;;;;;;;14.45;6.13;;;;;;;15.45;77.75;96260.47;5085742;28;20045;-80
2021/09/17 07:38:35;;;;;;;11.57;5.78;;;;;;;15.41;78.38;96262.06;5084154;28;20036;-81
2021/09/17 07:41:01;;;;;;;12.60;5.97;;;;;;;15.55;77.48;96266.81;5095823;28;20063;-80
2021/09/17 07:43:26;;;;;;;11.52;5.68;;;;;;;15.60;77.08;96264.16;5074146;28;20043;-80
2021/09/17 07:45:52;;;;;;;12.20;6.03;;;;;;;15.49;77.17;96258.84;5084212;28;20036;-80
2021/09/17 07:48:18;;;;;;;14.45;6.15;;;;;;;15.51;77.62;96257.81;5094731;28;20044;-80
2021/09/17 07:50:43;;;;;;;13.68;6.05;;;;;;;15.52;76.25;96257.53;5087001;28;20082;-80
2021/09/17 07:53:11;;;;;;;14.05;6.13;;;;;;;15.58;76.61;96259.13;5086753;28;20043;-79
2021/09/17 07:55:39;;;;;;;12.18;6.13;;;;;;;15.77;77.14;96254.13;5084541;28;20075;-80
2021/09/17 07:58:05;;;;;;;12.67;6.10;;;;;;;15.93;75.91;96253.03;5083348;28;20044;-80
2021/09/17 08:00:31;;;;;;;13.18;5.95;;;;;;;15.96;75.63;96259.66;5081757;28;20111;-79
2021/09/17 08:02:57;;;;;;;13.02;5.82;;;;;;;16.04;75.53;96258.31;5061601;28;20108;-79
2021/09/17 08:05:22;;;;;;;12.50;5.95;;;;;;;15.74;75.87;96257.28;5088530;28;20048;-79
2021/09/17 08:07:48;;;;;;;11.65;6.13;;;;;;;15.89;74.68;96254.63;5071057;28;20040;-80
2021/09/17 08:10:16;;;;;;;13.05;5.80;;;;;;;16.08;73.51;96254.84;5066859;28;20045;-81
2021/09/17 08:12:43;;;;;;;;;;;;;;;16.14;73.47;96255.63;5082366;28;20041;-80
2021/09/17 08:15:09;;;;;;;12.15;5.72;;;;;;;16.22;73.04;96255.09;5091438;28;19930;-80
2021/09/17 08:17:35;;;;;;;12.45;5.47;;;;;;;16.47;72.07;96262.19;5088446;28;20049;-80
2021/09/17 08:20:01;;;;;;;11.50;6.25;;;;;;;16.66;71.44;96254.38;5092698;28;20068;-80
2021/09/17 08:22:26;;;;;;;14.65;6.72;;;;;;;16.41;70.54;96255.28;5082474;28;20036;-81
2021/09/17 08:24:54;;;;;;;12.52;6.13;;;;;;;16.39;70.56;96258.22;5101861;28;20058;-79
2021/09/17 08:27:22;;;;;;;11.80;6.43;;;;;;;16.59;70.95;96253.91;5093098;28;20048;-80
2021/09/17 08:29:51;;;;;;;12.23;6.20;;;;;;;16.77;70.06;96255.94;5065932;28;20064;-80
2021/09/17 08:32:17;;;;;;;11.70;6.00;;;;;;;16.80;69.52;96250.09;5087145;28;20102;-80
2021/09/17 08:34:43;;;;;;;12.38;6.78;;;;;;;16.87;70.13;96255.91;5085497;28;20092;-80
2021/09/17 08:37:11;;;;;;;15.10;6.93;;;;;;;16.88;69.25;96256.69;5050040;28;20327;-80
2021/09/17 08:39:38;;;;;;;14.35;6.88;;;;;;;17.16;67.86;96261.28;5087279;28;20041;-80
2021/09/17 08:42:06;;;;;;;11.48;6.13;;;;;;;17.14;68.43;96249.38;5075501;28;20047;-81
2021/09/17 08:44:32;;;;;;;13.20;7.22;;;;;;;17.57;67.42;96259.13;5070397;28;20051;-79
2021/09/17 08:47:06;;;;;;;12.82;7.40;;;;;;;17.83;65.67;96262.41;5069511;28;20064;-81
2021/09/17 08:49:33;;;;;;;13.02;7.05;;;;;;;17.51;65.30;96265.56;5082569;28;20063;-79
2021/09/17 08:51:59;;;;;;;;;;;;;;;17.59;66.76;96262.31;5096938;28;20091;-80
2021/09/17 08:54:26;;;;;;;11.18;6.30;;;;;;;17.87;66.40;96264.53;5066397;28;20052;-80
2021/09/17 08:56:51;;;;;;;12.63;6.68;;;;;;;18.02;65.39;96261.69;5094399;28;20520;-80
2021/09/17 08:59:20;;;;;;;15.43;6.97;;;;;;;18.17;64.51;96258.09;5092081;28;20044;-81
2021/09/17 09:01:46;;;;;;;14.20;6.70;;;;;;;18.33;63.61;96254.97;5084524;28;20052;-80
2021/09/17 09:04:14;;;;;;;12.98;6.45;;;;;;;18.51;64.31;96250.78;5085960;28;20043;-81
2021/09/17 09:06:47;;;;;;;13.48;6.80;;;;;;;18.54;62.99;96250.19;5085683;28;20036;-81
2021/09/17 09:09:20;;;;;;;13.45;6.80;;;;;;;18.70;63.52;96253.50;5070248;28;20063;-81
2021/09/17 09:11:50;;;;;;;12.27;6.35;;;;;;;19.00;62.44;96257.66;5084706;28;20535;-81
2021/09/17 09:14:18;;;;;;;12.85;6.82;;;;;;;18.43;62.28;96256.72;5090847;28;20041;-80
2021/09/17 09:16:46;;;;;;;28.02;12.80;;;;;;;18.79;62.22;96256.31;5078008;28;20119;-82
2021/09/17 09:19:24;;;;;;;18.48;8.68;;;;;;;18.99;61.06;96257.91;5050784;28;20041;-81
2021/09/17 09:21:51;;;;;;;13.15;6.65;;;;;;;19.15;60.91;96259.28;5085499;28;20036;-81
2021/09/17 09:24:18;;;;;;;13.88;7.07;;;;;;;18.98;59.85;96259.78;5087711;28;20040;-80
2021/09/17 09:26:45;;;;;;;12.05;6.28;;;;;;;19.11;61.77;96247.63;5104806;28;20075;-80
2021/09/17 09:29:25;;;;;;;40.60;14.93;;;;;;;19.15;59.88;96254.72;5098105;28;20115;-80
2021/09/17 09:31:51;;;;;;;14.63;6.95;;;;;;;19.41;58.72;96257.03;5075410;28;20523;-80
2021/09/17 09:34:23;;;;;;;13.20;6.55;;;;;;;19.24;59.35;96246.88;5084068;28;20029;-81
2021/09/17 09:37:04;;;;;;;13.45;6.35;;;;;;;19.75;58.48;96250.63;5097552;28;20052;-81
2021/09/17 09:39:48;;;;;;;13.15;6.50;;;;;;;20.64;55.80;96245.78;5067758;28;20079;-79
2021/09/17 09:42:17;;;;;;;13.35;6.03;;;;;;;20.57;54.52;96242.75;5088160;28;20040;-79
2021/09/17 09:45:24;;;;;;;11.65;6.60;;;;;;;20.04;56.20;96248.53;5084548;28;20044;-80
2021/09/17 09:47:51;;;;;;;11.27;5.25;;;;;;;19.50;55.21;96241.94;5085995;28;20044;-80
2021/09/17 09:50:22;;;;;;;12.20;5.63;;;;;;;19.58;55.34;96241.28;5075987;28;20055;-81
2021/09/17 09:52:49;;;;;;;11.25;5.88;;;;;;;19.41;56.66;96236.47;5087880;28;20037;-81
2021/09/17 09:55:15;;;;;;;13.25;6.10;;;;;;;19.46;56.87;96227.59;5086811;28;20098;-80
2021/09/17 09:57:42;;;;;;;11.85;5.53;;;;;;;19.47;56.44;96226.50;5101405;28;20499;-80
2021/09/17 10:00:14;;;;;;;9.75;4.85;;;;;;;19.77;55.53;96224.47;5080940;28;20096;-81
2021/09/17 10:02:44;;;;;;;8.40;4.05;;;;;;;19.70;51.55;96224.06;5084120;22;20045;-83
2021/09/17 10:05:12;;;;;;;10.75;4.15;;;;;;;19.33;51.98;96223.03;5045734;28;20041;-81
2021/09/17 10:07:43;;;;;;;9.85;4.25;;;;;;;19.29;51.91;96230.03;5060860;28;20100;-83
2021/09/17 10:10:11;;;;;;;17.40;6.60;;;;;;;18.99;54.54;96226.72;5075548;28;20044;-83
2021/09/17 10:12:39;;;;;;;;;;;;;;;18.91;53.95;96218.59;5050412;28;20100;-83
2021/09/17 10:15:07;;;;;;;8.02;3.40;;;;;;;18.40;50.22;96217.34;5051025;28;19927;-82
2021/09/17 10:17:33;;;;;;;;;;;;;;;18.79;52.40;96214.47;5050693;28;20044;-83
2021/09/17 10:20:00;;;;;;;10.27;4.53;;;;;;;18.98;53.01;96216.34;5048406;28;19957;-82
2021/09/17 10:22:29;;;;;;;10.15;4.20;;;;;;;19.06;53.60;96213.84;5069496;28;20048;-82
2021/09/17 10:25:17;;;;;;;11.40;4.85;;;;;;;18.75;55.69;96208.13;5076188;28;20029;-83
2021/09/17 10:27:47;;;;;;;10.85;5.15;;;;;;;18.26;54.11;96213.78;5078458;28;20059;-83
2021/09/17 10:30:15;;;;;;;9.05;4.55;;;;;;;18.42;52.68;96204.53;5069303;28;20037;-82
2021/09/17 10:32:44;;;;;;;9.50;5.18;;;;;;;18.73;53.87;96204.19;5070770;28;20036;-83
2021/09/17 10:35:14;;;;;;;11.57;5.43;;;;;;;18.52;55.03;96203.63;5063006;28;20045;-83
2021/09/17 10:37:59;;;;;;;11.38;5.22;;;;;;;18.74;55.34;96205.75;5064936;28;20021;-83
2021/09/17 10:40:42;;;;;;;8.93;4.03;;;;;;;18.76;53.06;96199.06;5058152;28;20099;-82
2021/09/17 10:43:16;;;;;;;8.23;3.75;;;;;;;18.87;52.31;96202.38;5063061;28;20055;-82
2021/09/17 10:45:43;;;;;;;9.00;4.40;;;;;;;18.88;52.72;96199.41;5061413;28;20052;-83
2021/09/17 10:48:11;;;;;;;9.07;4.03;;;;;;;19.01;51.69;96187.25;5068103;28;20057;-83
2021/09/17 10:50:43;;;;;;;8.70;4.03;;;;;;;19.10;51.15;96193.50;5050715;28;20045;-83
2021/09/17 10:53:10;;;;;;;7.78;3.20;;;;;;;19.26;48.76;96198.59;5067399;28;20060;-82
2021/09/17 10:56:02;;;;;;;9.25;3.10;;;;;;;19.44;49.41;96207.66;5059660;28;20052;-82
2021/09/17 10:58:29;;;;;;;8.45;3.15;;;;;;;19.40;48.16;96202.88;5073941;28;20282;-82
2021/09/17 11:00:56;;;;;;;13.68;5.18;;;;;;;19.42;48.46;96194.59;5066013;28;20524;-82
2021/09/17 11:03:56;;;;;;;13.52;5.03;;;;;;;19.49;48.74;96194.22;5065310;28;20041;-83
2021/09/17 11:06:29;;;;;;;11.57;4.72;;;;;;;19.51;48.54;96200.84;5057608;28;20156;-83
2021/09/17 11:08:57;;;;;;;8.15;3.42;;;;;;;19.64;49.15;96200.13;5071612;28;20046;-83
2021/09/17 11:11:29;;;;;;;7.38;2.92;;;;;;;19.89;48.00;96198.06;5069095;28;20073;-82
2021/09/17 11:13:57;;;;;;;9.55;3.38;;;;;;;19.86;48.30;96191.47;5053719;28;20049;-82
2021/09/17 11:16:23;;;;;;;;;;;;;;;19.38;47.61;96190.94;5044316;28;20054;-82
2021/09/17 11:19:05;;;;;;;10.80;4.05;;;;;;;19.57;46.85;96194.34;5055046;28;19993;-82
2021/09/17 11:21:32;;;;;;;12.68;6.60;;;;;;;19.62;46.48;96194.28;5054692;28;20107;-83
2021/09/17 11:24:01;;;;;;;10.68;3.55;;;;;;;19.60;47.46;96187.66;5045175;28;20077;-82
2021/09/17 11:26:30;;;;;;;9.35;3.00;;;;;;;19.72;45.25;96189.84;5062029;28;20056;-84
2021/09/17 11:29:02;;;;;;;9.70;3.42;;;;;;;19.60;45.95;96191.13;5057277;28;20052;-83